Time;durP1;ratioP1;P1;durP2;ratioP2;P2;SDS_P1;SDS_P2;PMS_P1;PMS_P2;Temp;Humidity;BMP_temperature;BMP_pressure;BME280_temperature;BME280_humidity;BME280_pressure;Samples;Min_cycle;Max_cycle;Signal;HPM_P1;HPM_P2
2022/11/23 15:39:01;;;;;;;69.40;33.80;;;;;;;-0.44;86.26;99432.23;97463;1324;637185;-67
2022/11/23 15:41:29;;;;;;;69.60;32.10;;;;;;;-0.48;86.28;99433.42;99670;1299;94400;-67
2022/11/23 15:43:58;;;;;;;65.70;32.90;;;;;;;-0.48;86.14;99431.54;100029;1302;107263;-67
2022/11/23 15:46:28;;;;;;;67.10;31.80;;;;;;;-0.46;86.22;99431.02;99551;1306;94495;-67
2022/11/23 15:48:57;;;;;;;67.60;32.10;;;;;;;-0.43;86.24;99429.14;99676;1308;137085;-68
2022/11/23 15:51:35;;;;;;;70.70;32.80;;;;;;;-0.39;86.14;99430.66;100250;1289;107307;-67
2022/11/23 15:54:03;;;;;;;61.70;31.70;;;;;;;-0.36;86.11;99430.84;100263;1286;137734;-67
2022/11/23 15:56:33;;;;;;;68.70;33.80;;;;;;;-0.34;85.93;99432.91;100509;1284;108371;-67
2022/11/23 15:59:03;;;;;;;67.10;33.80;;;;;;;-0.32;85.88;99435.11;100429;1279;94644;-67
2022/11/23 16:01:31;;;;;;;68.00;34.40;;;;;;;-0.33;85.81;99435.45;100476;1290;136933;-67
2022/11/23 16:04:02;;;;;;;77.50;36.20;;;;;;;-0.35;85.78;99435.80;100316;1287;108026;-67
2022/11/23 16:06:40;;;;;;;75.20;34.30;;;;;;;-0.38;85.91;99441.25;100515;1279;137585;-67
2022/11/23 16:09:41;;;;;;;69.80;32.40;;;;;;;-0.40;85.87;99442.11;100467;1294;107715;-67
2022/11/23 16:12:25;;;;;;;61.40;30.20;;;;;;;-0.41;85.80;99439.73;99556;1293;1003081;-67
2022/11/23 16:14:54;;;;;;;66.20;30.60;;;;;;;-0.41;85.80;99442.29;101249;1285;107734;-67
2022/11/23 16:17:24;;;;;;;64.90;32.20;;;;;;;-0.41;85.80;99448.09;100566;1294;107784;-67
2022/11/23 16:19:53;;;;;;;68.00;32.30;;;;;;;-0.42;85.83;99450.14;100170;1290;137515;-67
2022/11/23 16:22:34;;;;;;;76.10;34.80;;;;;;;-0.43;85.72;99453.73;100654;1285;107637;-67
2022/11/23 16:25:07;;;;;;;66.40;31.90;;;;;;;-0.50;85.73;99455.29;99336;1287;1003724;-67
2022/11/23 16:27:35;;;;;;;65.80;31.70;;;;;;;-0.51;85.91;99455.63;100142;1281;110923;-67
2022/11/23 16:30:03;;;;;;;68.90;31.80;;;;;;;-0.54;85.84;99455.79;100405;1281;139962;-65
2022/11/23 16:32:32;;;;;;;65.70;32.60;;;;;;;-0.59;85.89;99460.73;100551;1285;95124;-68
2022/11/23 16:35:16;;;;;;;71.60;32.20;;;;;;;-0.64;85.87;99456.30;100198;1288;108454;-66
2022/11/23 16:37:44;;;;;;;69.00;32.80;;;;;;;-0.68;86.11;99456.31;100033;1288;138235;-67
2022/11/23 16:40:14;;;;;;;65.40;31.80;;;;;;;-0.70;86.19;99454.77;100112;1282;109454;-67
2022/11/23 16:42:41;;;;;;;68.70;32.00;;;;;;;-0.68;86.36;99452.55;100025;1289;137970;-67
2022/11/23 16:45:13;;;;;;;75.10;35.40;;;;;;;-0.68;86.31;99452.21;100168;1287;97341;-66
2022/11/23 16:47:53;;;;;;;67.80;31.40;;;;;;;-0.66;86.44;99454.60;100750;1288;138006;-67
2022/11/23 16:50:21;;;;;;;68.40;32.80;;;;;;;-0.65;86.48;99448.27;100977;1287;94365;-67
2022/11/23 16:52:50;;;;;;;71.10;33.60;;;;;;;-0.61;86.56;99440.94;100160;1281;108142;-67
2022/11/23 16:55:18;;;;;;;72.20;34.30;;;;;;;-0.53;86.72;99437.35;100415;1288;137795;-67
2022/11/23 16:57:46;;;;;;;70.80;34.60;;;;;;;-0.45;86.81;99443.66;100080;1286;95141;-66
2022/11/23 17:00:17;;;;;;;71.00;34.20;;;;;;;-0.39;86.75;99445.02;99940;1281;137912;-67
2022/11/23 17:02:45;;;;;;;72.10;34.70;;;;;;;-0.33;86.69;99449.98;100377;1279;94422;-67
2022/11/23 17:05:18;;;;;;;79.70;36.80;;;;;;;-0.30;86.39;99449.63;100318;1282;109648;-67
2022/11/23 17:07:45;;;;;;;80.70;35.60;;;;;;;-0.30;86.28;99445.88;99806;1284;137958;-67
2022/11/23 17:10:14;;;;;;;76.40;34.50;;;;;;;-0.28;86.27;99446.04;100144;1289;95162;-67
2022/11/23 17:12:46;;;;;;;67.60;33.30;;;;;;;-0.28;86.11;99449.28;100243;1286;138129;-66
2022/11/23 17:15:15;;;;;;;76.50;34.90;;;;;;;-0.27;86.16;99451.16;100385;1298;95781;-66
2022/11/23 17:17:43;;;;;;;72.30;33.60;;;;;;;-0.26;86.04;99448.09;100250;1288;138391;-66
2022/11/23 17:20:13;;;;;;;69.80;32.50;;;;;;;-0.27;85.91;99449.27;100297;1287;109340;-66
2022/11/23 17:22:41;;;;;;;71.10;31.50;;;;;;;-0.28;85.87;99448.09;100342;1296;95167;-67
2022/11/23 17:25:11;;;;;;;69.80;33.00;;;;;;;-0.28;85.87;99445.86;100234;1288;137530;-67
2022/11/23 17:27:44;;;;;;;67.60;33.60;;;;;;;-0.29;85.64;99444.33;100868;1280;95146;-66
2022/11/23 17:30:17;;;;;;;69.20;32.90;;;;;;;-0.30;85.72;99446.39;100536;1288;137578;-66
2022/11/23 17:32:44;;;;;;;71.90;34.20;;;;;;;-0.37;85.48;99443.66;100515;1287;107183;-67
2022/11/23 17:35:12;;;;;;;66.90;32.70;;;;;;;-0.47;85.41;99445.20;100207;1278;95323;-67
2022/11/23 17:37:40;;;;;;;64.90;33.60;;;;;;;-0.55;85.56;99444.86;100790;1288;136836;-67
2022/11/23 17:40:14;;;;;;;64.80;31.90;;;;;;;-0.65;85.54;99451.87;100676;1289;95132;-67
2022/11/23 17:42:42;;;;;;;64.80;33.30;;;;;;;-0.71;85.79;99450.66;100143;1289;138013;-67
2022/11/23 17:45:11;;;;;;;64.70;31.50;;;;;;;-0.77;85.77;99448.10;100424;1290;1002234;-66
2022/11/23 17:47:40;;;;;;;64.30;31.80;;;;;;;-0.81;85.94;99450.14;100432;1280;138112;-67
2022/11/23 17:50:16;;;;;;;66.30;32.40;;;;;;;-0.82;86.11;99451.34;100131;1288;110373;-66
2022/11/23 17:52:44;;;;;;;61.60;30.90;;;;;;;-0.83;86.23;99453.55;100383;1290;95136;-68
2022/11/23 17:55:13;;;;;;;59.90;31.20;;;;;;;-0.84;86.15;99454.24;100024;1288;137545;-67
2022/11/23 17:57:40;;;;;;;64.80;31.70;;;;;;;-0.85;86.16;99459.70;100445;1289;107516;-67
2022/11/23 18:00:18;;;;;;;60.40;30.50;;;;;;;-0.86;86.29;99461.76;100083;1284;137908;-67
2022/11/23 18:02:46;;;;;;;58.80;29.20;;;;;;;-0.87;86.28;99459.02;100094;1283;108036;-66
2022/11/23 18:05:14;;;;;;;59.00;29.40;;;;;;;-0.87;86.34;99459.54;99925;1288;95126;-67
2022/11/23 18:07:51;;;;;;;55.90;28.50;;;;;;;-0.84;86.43;99461.75;99914;1287;137388;-67
2022/11/23 18:10:19;;;;;;;53.60;29.10;;;;;;;-0.80;86.45;99468.06;100496;1279;107557;-67
2022/11/23 18:12:46;;;;;;;49.80;27.20;;;;;;;-0.81;86.17;99466.19;100494;1288;140629;-65
2022/11/23 18:15:15;;;;;;;52.90;27.40;;;;;;;-0.83;86.15;99464.30;100358;1288;108102;-65
2022/11/23 18:17:44;;;;;;;53.80;28.80;;;;;;;-0.84;86.13;99463.98;100403;1289;137495;-68
2022/11/23 18:20:14;;;;;;;55.20;28.20;;;;;;;-0.88;86.13;99461.41;100353;1288;108556;-66
2022/11/23 18:22:41;;;;;;;58.90;29.50;;;;;;;-0.87;86.36;99460.56;100361;1289;107370;-66
2022/11/23 18:25:10;;;;;;;54.20;28.90;;;;;;;-0.88;86.35;99457.66;100428;1284;138035;-65
2022/11/23 18:27:38;;;;;;;56.50;28.50;;;;;;;-0.90;86.29;99454.23;100551;1285;107205;-65
2022/11/23 18:30:07;;;;;;;57.00;29.20;;;;;;;-0.88;86.52;99457.99;100225;1288;139454;-65
2022/11/23 18:32:35;;;;;;;52.10;27.90;;;;;;;-0.85;86.61;99451.00;99755;1288;1015603;-65
2022/11/23 18:35:03;;;;;;;57.00;30.20;;;;;;;-0.80;86.77;99449.81;100250;1291;107592;-66
2022/11/23 18:37:31;;;;;;;54.10;28.80;;;;;;;-0.75;86.76;99449.97;100808;1289;137921;-67
2022/11/23 18:39:59;;;;;;;46.10;26.00;;;;;;;-0.70;86.70;99447.93;100344;1289;108433;-67
2022/11/23 18:42:27;;;;;;;48.80;25.90;;;;;;;-0.72;85.96;99452.55;100264;1289;137733;-68
2022/11/23 18:44:55;;;;;;;47.70;27.10;;;;;;;-0.83;85.91;99452.19;100264;1288;107350;-68
2022/11/23 18:47:23;;;;;;;53.10;28.40;;;;;;;-0.90;86.00;99452.18;99642;1289;1002934;-68
2022/11/23 18:49:51;;;;;;;49.40;26.60;;;;;;;-0.94;86.17;99453.36;100449;1285;137161;-68
2022/11/23 18:52:19;;;;;;;51.00;26.30;;;;;;;-0.97;86.14;99450.98;100359;1289;107144;-68
2022/11/23 18:54:47;;;;;;;46.20;26.00;;;;;;;-0.97;86.43;99447.73;100522;1285;138042;-67
2022/11/23 18:57:15;;;;;;;51.10;26.90;;;;;;;-0.94;86.68;99447.23;100352;1292;107740;-68
2022/11/23 18:59:43;;;;;;;53.40;29.20;;;;;;;-0.90;86.61;99453.02;100191;1288;138016;-66
2022/11/23 19:02:26;;;;;;;58.70;29.90;;;;;;;-0.87;86.51;99454.59;100188;1282;95320;-67
2022/11/23 19:04:54;;;;;;;54.60;29.90;;;;;;;-0.87;86.25;99447.59;100317;1296;108173;-66
2022/11/23 19:07:22;;;;;;;54.00;29.10;;;;;;;-0.86;86.24;99447.77;100279;1288;138018;-66
